sensor_id;sensor_type;location;lat;lon;timestamp;P1;durP1;ratioP1;P2;durP2;ratioP2
26620;SDS011;14253;44.840;10.444;2023-06-10T00:00:43;21.55;;;18.38;;
26620;SDS011;14253;44.840;10.444;2023-06-10T00:03:09;20.63;;;18.40;;
26620;SDS011;14253;44.840;10.444;2023-06-10T00:05:35;22.92;;;17.75;;
26620;SDS011;14253;44.840;10.444;2023-06-10T00:08:04;21.98;;;17.50;;
26620;SDS011;14253;44.840;10.444;2023-06-10T00:10:33;24.90;;;18.67;;
26620;SDS011;14253;44.840;10.444;2023-06-10T00:13:03;23.35;;;18.52;;
26620;SDS011;14253;44.840;10.444;2023-06-10T00:15:30;18.13;;;16.13;;
26620;SDS011;14253;44.840;10.444;2023-06-10T00:17:56;18.08;;;15.93;;
26620;SDS011;14253;44.840;10.444;2023-06-10T00:20:22;22.75;;;17.33;;
26620;SDS011;14253;44.840;10.444;2023-06-10T00:22:51;22.02;;;15.02;;
26620;SDS011;14253;44.840;10.444;2023-06-10T00:25:18;16.48;;;13.70;;
26620;SDS011;14253;44.840;10.444;2023-06-10T00:27:44;15.32;;;13.55;;
26620;SDS011;14253;44.840;10.444;2023-06-10T00:30:10;15.23;;;13.63;;
26620;SDS011;14253;44.840;10.444;2023-06-10T00:32:37;20.42;;;14.10;;
26620;SDS011;14253;44.840;10.444;2023-06-10T00:35:03;22.55;;;15.52;;
26620;SDS011;14253;44.840;10.444;2023-06-10T00:37:30;19.90;;;15.65;;
26620;SDS011;14253;44.840;10.444;2023-06-10T00:39:57;20.25;;;14.57;;
26620;SDS011;14253;44.840;10.444;2023-06-10T00:42:24;19.00;;;15.80;;
26620;SDS011;14253;44.840;10.444;2023-06-10T00:44:50;17.02;;;14.23;;
26620;SDS011;14253;44.840;10.444;2023-06-10T00:47:16;23.08;;;16.58;;
26620;SDS011;14253;44.840;10.444;2023-06-10T00:49:43;16.55;;;14.85;;
26620;SDS011;14253;44.840;10.444;2023-06-10T00:52:10;18.95;;;15.60;;
26620;SDS011;14253;44.840;10.444;2023-06-10T00:54:40;16.10;;;13.27;;
26620;SDS011;14253;44.840;10.444;2023-06-10T00:57:07;19.02;;;14.38;;
26620;SDS011;14253;44.840;10.444;2023-06-10T00:59:34;17.30;;;14.30;;
26620;SDS011;14253;44.840;10.444;2023-06-10T01:02:00;15.88;;;13.65;;
26620;SDS011;14253;44.840;10.444;2023-06-10T01:04:28;24.08;;;16.85;;
26620;SDS011;14253;44.840;10.444;2023-06-10T01:10:01;20.42;;;14.43;;
26620;SDS011;14253;44.840;10.444;2023-06-10T01:12:39;16.17;;;14.47;;
26620;SDS011;14253;44.840;10.444;2023-06-10T01:15:17;15.50;;;12.85;;
26620;SDS011;14253;44.840;10.444;2023-06-10T01:20:29;11.90;;;10.40;;
26620;SDS011;14253;44.840;10.444;2023-06-10T01:22:57;12.55;;;10.35;;
26620;SDS011;14253;44.840;10.444;2023-06-10T01:25:26;14.93;;;9.80;;
26620;SDS011;14253;44.840;10.444;2023-06-10T01:30:30;11.57;;;6.93;;
26620;SDS011;14253;44.840;10.444;2023-06-10T01:33:02;10.82;;;6.13;;
26620;SDS011;14253;44.840;10.444;2023-06-10T01:35:33;10.77;;;5.88;;
26620;SDS011;14253;44.840;10.444;2023-06-10T01:38:02;11.15;;;6.13;;
26620;SDS011;14253;44.840;10.444;2023-06-10T01:40:29;10.57;;;5.70;;
26620;SDS011;14253;44.840;10.444;2023-06-10T01:42:57;8.60;;;5.75;;
26620;SDS011;14253;44.840;10.444;2023-06-10T01:45:23;8.30;;;5.10;;
26620;SDS011;14253;44.840;10.444;2023-06-10T01:47:49;6.45;;;4.80;;
26620;SDS011;14253;44.840;10.444;2023-06-10T01:50:15;9.07;;;4.28;;
26620;SDS011;14253;44.840;10.444;2023-06-10T01:52:41;9.20;;;4.55;;
26620;SDS011;14253;44.840;10.444;2023-06-10T01:55:07;6.43;;;4.40;;
26620;SDS011;14253;44.840;10.444;2023-06-10T01:57:33;8.27;;;4.82;;
26620;SDS011;14253;44.840;10.444;2023-06-10T01:59:59;11.20;;;5.43;;
26620;SDS011;14253;44.840;10.444;2023-06-10T02:02:25;11.77;;;5.18;;
26620;SDS011;14253;44.840;10.444;2023-06-10T02:04:51;11.00;;;5.40;;
26620;SDS011;14253;44.840;10.444;2023-06-10T02:07:19;9.73;;;5.20;;
26620;SDS011;14253;44.840;10.444;2023-06-10T02:09:45;10.25;;;4.90;;
26620;SDS011;14253;44.840;10.444;2023-06-10T02:12:11;11.75;;;5.45;;
26620;SDS011;14253;44.840;10.444;2023-06-10T02:14:37;9.65;;;5.28;;
26620;SDS011;14253;44.840;10.444;2023-06-10T02:17:03;8.38;;;4.80;;
26620;SDS011;14253;44.840;10.444;2023-06-10T02:19:29;12.50;;;6.00;;
26620;SDS011;14253;44.840;10.444;2023-06-10T02:21:56;8.43;;;5.40;;
26620;SDS011;14253;44.840;10.444;2023-06-10T02:24:22;10.93;;;5.70;;
26620;SDS011;14253;44.840;10.444;2023-06-10T02:26:47;8.90;;;4.80;;
26620;SDS011;14253;44.840;10.444;2023-06-10T02:29:13;8.27;;;4.75;;
26620;SDS011;14253;44.840;10.444;2023-06-10T02:31:39;10.93;;;4.47;;
26620;SDS011;14253;44.840;10.444;2023-06-10T02:34:07;10.15;;;4.82;;
26620;SDS011;14253;44.840;10.444;2023-06-10T02:36:34;8.48;;;4.10;;
26620;SDS011;14253;44.840;10.444;2023-06-10T02:39:01;6.95;;;4.30;;
26620;SDS011;14253;44.840;10.444;2023-06-10T02:41:29;4.72;;;4.00;;
26620;SDS011;14253;44.840;10.444;2023-06-10T02:43:55;9.05;;;4.00;;
26620;SDS011;14253;44.840;10.444;2023-06-10T02:46:22;5.88;;;3.95;;
26620;SDS011;14253;44.840;10.444;2023-06-10T02:48:48;6.50;;;4.10;;
26620;SDS011;14253;44.840;10.444;2023-06-10T02:51:20;8.35;;;3.95;;
26620;SDS011;14253;44.840;10.444;2023-06-10T02:53:49;8.10;;;4.60;;
26620;SDS011;14253;44.840;10.444;2023-06-10T02:56:18;7.95;;;4.43;;
26620;SDS011;14253;44.840;10.444;2023-06-10T02:58:45;7.43;;;5.18;;
26620;SDS011;14253;44.840;10.444;2023-06-10T03:01:14;6.75;;;5.10;;
26620;SDS011;14253;44.840;10.444;2023-06-10T03:03:52;6.82;;;5.60;;
26620;SDS011;14253;44.840;10.444;2023-06-10T03:06:18;8.65;;;5.53;;
26620;SDS011;14253;44.840;10.444;2023-06-10T03:08:45;11.57;;;5.70;;
26620;SDS011;14253;44.840;10.444;2023-06-10T03:11:15;7.93;;;6.50;;
26620;SDS011;14253;44.840;10.444;2023-06-10T03:13:41;7.85;;;6.40;;
26620;SDS011;14253;44.840;10.444;2023-06-10T03:16:11;8.02;;;5.60;;
26620;SDS011;14253;44.840;10.444;2023-06-10T03:18:38;9.93;;;6.15;;
26620;SDS011;14253;44.840;10.444;2023-06-10T03:21:05;11.90;;;6.45;;
26620;SDS011;14253;44.840;10.444;2023-06-10T03:23:31;9.15;;;5.75;;
26620;SDS011;14253;44.840;10.444;2023-06-10T03:25:59;8.73;;;6.93;;
26620;SDS011;14253;44.840;10.444;2023-06-10T03:28:26;12.18;;;7.15;;
26620;SDS011;14253;44.840;10.444;2023-06-10T03:30:52;11.20;;;7.60;;
26620;SDS011;14253;44.840;10.444;2023-06-10T03:33:21;14.02;;;7.28;;
26620;SDS011;14253;44.840;10.444;2023-06-10T03:35:48;12.50;;;7.18;;
26620;SDS011;14253;44.840;10.444;2023-06-10T03:38:14;13.95;;;7.25;;
26620;SDS011;14253;44.840;10.444;2023-06-10T03:40:40;8.05;;;6.43;;
26620;SDS011;14253;44.840;10.444;2023-06-10T03:43:06;11.02;;;7.03;;
26620;SDS011;14253;44.840;10.444;2023-06-10T03:45:32;14.60;;;6.75;;
26620;SDS011;14253;44.840;10.444;2023-06-10T03:47:59;11.05;;;6.10;;
26620;SDS011;14253;44.840;10.444;2023-06-10T03:50:32;16.60;;;6.25;;
26620;SDS011;14253;44.840;10.444;2023-06-10T03:52:58;10.70;;;5.97;;
26620;SDS011;14253;44.840;10.444;2023-06-10T03:55:25;13.70;;;6.70;;
26620;SDS011;14253;44.840;10.444;2023-06-10T03:57:53;11.90;;;6.40;;
26620;SDS011;14253;44.840;10.444;2023-06-10T04:00:20;9.02;;;5.80;;
26620;SDS011;14253;44.840;10.444;2023-06-10T04:02:47;13.73;;;5.75;;
26620;SDS011;14253;44.840;10.444;2023-06-10T04:05:34;9.40;;;6.68;;
26620;SDS011;14253;44.840;10.444;2023-06-10T04:08:00;8.93;;;6.47;;
26620;SDS011;14253;44.840;10.444;2023-06-10T04:10:27;11.68;;;5.72;;
26620;SDS011;14253;44.840;10.444;2023-06-10T04:12:53;9.25;;;5.10;;
26620;SDS011;14253;44.840;10.444;2023-06-10T04:15:20;10.95;;;4.97;;
26620;SDS011;14253;44.840;10.444;2023-06-10T04:17:46;9.95;;;4.72;;
26620;SDS011;14253;44.840;10.444;2023-06-10T04:20:15;9.32;;;5.35;;
26620;SDS011;14253;44.840;10.444;2023-06-10T04:22:44;13.52;;;6.82;;
26620;SDS011;14253;44.840;10.444;2023-06-10T04:25:10;9.73;;;5.90;;
26620;SDS011;14253;44.840;10.444;2023-06-10T04:27:38;11.20;;;6.18;;
26620;SDS011;14253;44.840;10.444;2023-06-10T04:30:04;13.18;;;6.53;;
26620;SDS011;14253;44.840;10.444;2023-06-10T04:32:33;11.52;;;6.65;;
26620;SDS011;14253;44.840;10.444;2023-06-10T04:34:59;13.52;;;7.15;;
26620;SDS011;14253;44.840;10.444;2023-06-10T04:37:26;11.10;;;6.45;;
26620;SDS011;14253;44.840;10.444;2023-06-10T04:39:51;9.77;;;6.53;;
26620;SDS011;14253;44.840;10.444;2023-06-10T04:42:17;13.73;;;6.97;;
26620;SDS011;14253;44.840;10.444;2023-06-10T04:44:44;13.02;;;7.65;;
26620;SDS011;14253;44.840;10.444;2023-06-10T04:47:10;11.65;;;7.18;;
26620;SDS011;14253;44.840;10.444;2023-06-10T04:49:35;14.40;;;7.38;;
26620;SDS011;14253;44.840;10.444;2023-06-10T04:52:03;11.02;;;6.63;;
26620;SDS011;14253;44.840;10.444;2023-06-10T04:54:32;9.35;;;6.80;;
26620;SDS011;14253;44.840;10.444;2023-06-10T04:56:58;13.52;;;7.13;;
26620;SDS011;14253;44.840;10.444;2023-06-10T04:59:25;8.57;;;6.65;;
26620;SDS011;14253;44.840;10.444;2023-06-10T05:01:51;13.00;;;7.65;;
26620;SDS011;14253;44.840;10.444;2023-06-10T05:04:17;12.23;;;7.32;;
26620;SDS011;14253;44.840;10.444;2023-06-10T05:06:43;10.10;;;7.50;;
26620;SDS011;14253;44.840;10.444;2023-06-10T05:09:09;8.38;;;7.03;;
26620;SDS011;14253;44.840;10.444;2023-06-10T05:11:35;10.55;;;7.13;;
26620;SDS011;14253;44.840;10.444;2023-06-10T05:14:01;11.15;;;7.18;;
26620;SDS011;14253;44.840;10.444;2023-06-10T05:16:27;13.07;;;7.43;;
26620;SDS011;14253;44.840;10.444;2023-06-10T05:18:53;10.95;;;7.70;;
26620;SDS011;14253;44.840;10.444;2023-06-10T05:21:19;12.45;;;7.55;;
26620;SDS011;14253;44.840;10.444;2023-06-10T05:23:45;10.20;;;7.22;;
26620;SDS011;14253;44.840;10.444;2023-06-10T05:26:11;13.88;;;7.32;;
26620;SDS011;14253;44.840;10.444;2023-06-10T05:28:37;9.38;;;7.55;;
26620;SDS011;14253;44.840;10.444;2023-06-10T05:31:03;13.95;;;7.53;;
26620;SDS011;14253;44.840;10.444;2023-06-10T05:33:29;10.65;;;7.00;;
26620;SDS011;14253;44.840;10.444;2023-06-10T05:35:55;15.65;;;6.72;;
26620;SDS011;14253;44.840;10.444;2023-06-10T05:38:21;12.15;;;6.10;;
26620;SDS011;14253;44.840;10.444;2023-06-10T05:40:47;7.53;;;5.45;;
26620;SDS011;14253;44.840;10.444;2023-06-10T05:43:13;9.93;;;5.68;;
26620;SDS011;14253;44.840;10.444;2023-06-10T05:45:41;11.15;;;4.38;;
26620;SDS011;14253;44.840;10.444;2023-06-10T05:48:07;7.50;;;3.95;;
26620;SDS011;14253;44.840;10.444;2023-06-10T05:50:34;5.97;;;3.20;;
26620;SDS011;14253;44.840;10.444;2023-06-10T05:53:04;3.38;;;2.60;;
26620;SDS011;14253;44.840;10.444;2023-06-10T05:55:32;6.90;;;2.50;;
26620;SDS011;14253;44.840;10.444;2023-06-10T05:57:58;7.88;;;3.03;;
26620;SDS011;14253;44.840;10.444;2023-06-10T06:00:25;5.07;;;2.92;;
26620;SDS011;14253;44.840;10.444;2023-06-10T06:02:52;7.22;;;3.22;;
26620;SDS011;14253;44.840;10.444;2023-06-10T06:05:19;9.45;;;4.03;;
26620;SDS011;14253;44.840;10.444;2023-06-10T06:07:45;4.20;;;3.08;;
26620;SDS011;14253;44.840;10.444;2023-06-10T06:10:11;3.95;;;3.30;;
26620;SDS011;14253;44.840;10.444;2023-06-10T06:12:37;5.10;;;3.88;;
26620;SDS011;14253;44.840;10.444;2023-06-10T06:15:03;10.48;;;4.90;;
26620;SDS011;14253;44.840;10.444;2023-06-10T06:17:29;16.27;;;7.30;;
26620;SDS011;14253;44.840;10.444;2023-06-10T06:19:55;14.77;;;8.80;;
26620;SDS011;14253;44.840;10.444;2023-06-10T06:22:22;11.63;;;7.45;;
26620;SDS011;14253;44.840;10.444;2023-06-10T06:24:48;12.95;;;7.85;;
26620;SDS011;14253;44.840;10.444;2023-06-10T06:27:14;15.63;;;7.72;;
26620;SDS011;14253;44.840;10.444;2023-06-10T06:29:41;9.77;;;6.72;;
26620;SDS011;14253;44.840;10.444;2023-06-10T06:32:07;11.25;;;6.00;;
26620;SDS011;14253;44.840;10.444;2023-06-10T06:34:33;10.70;;;6.40;;
26620;SDS011;14253;44.840;10.444;2023-06-10T06:36:59;11.25;;;6.00;;
26620;SDS011;14253;44.840;10.444;2023-06-10T06:39:28;8.35;;;5.03;;
26620;SDS011;14253;44.840;10.444;2023-06-10T06:41:59;9.15;;;4.18;;
26620;SDS011;14253;44.840;10.444;2023-06-10T06:44:41;6.78;;;4.13;;
26620;SDS011;14253;44.840;10.444;2023-06-10T06:47:08;6.45;;;4.20;;
26620;SDS011;14253;44.840;10.444;2023-06-10T06:49:34;8.77;;;4.88;;
26620;SDS011;14253;44.840;10.444;2023-06-10T06:52:01;8.77;;;4.85;;
26620;SDS011;14253;44.840;10.444;2023-06-10T06:54:28;11.82;;;4.95;;
26620;SDS011;14253;44.840;10.444;2023-06-10T06:56:57;7.33;;;4.57;;
26620;SDS011;14253;44.840;10.444;2023-06-10T06:59:23;10.38;;;5.43;;
26620;SDS011;14253;44.840;10.444;2023-06-10T07:01:50;9.18;;;4.63;;
26620;SDS011;14253;44.840;10.444;2023-06-10T07:04:19;7.32;;;4.28;;
26620;SDS011;14253;44.840;10.444;2023-06-10T07:06:47;8.68;;;4.72;;
26620;SDS011;14253;44.840;10.444;2023-06-10T07:09:15;9.70;;;4.82;;
26620;SDS011;14253;44.840;10.444;2023-06-10T07:11:43;9.10;;;4.88;;
26620;SDS011;14253;44.840;10.444;2023-06-10T07:14:09;8.77;;;4.78;;
26620;SDS011;14253;44.840;10.444;2023-06-10T07:16:35;11.70;;;4.55;;
26620;SDS011;14253;44.840;10.444;2023-06-10T07:19:01;7.45;;;4.68;;
26620;SDS011;14253;44.840;10.444;2023-06-10T07:21:29;7.53;;;4.05;;
26620;SDS011;14253;44.840;10.444;2023-06-10T07:23:56;9.13;;;4.88;;
26620;SDS011;14253;44.840;10.444;2023-06-10T07:26:22;8.75;;;4.28;;
26620;SDS011;14253;44.840;10.444;2023-06-10T07:28:48;7.72;;;4.57;;
26620;SDS011;14253;44.840;10.444;2023-06-10T07:31:14;7.32;;;4.00;;
26620;SDS011;14253;44.840;10.444;2023-06-10T07:33:40;7.43;;;3.95;;
26620;SDS011;14253;44.840;10.444;2023-06-10T07:36:06;8.38;;;3.85;;
26620;SDS011;14253;44.840;10.444;2023-06-10T07:38:34;7.32;;;3.60;;
26620;SDS011;14253;44.840;10.444;2023-06-10T07:41:01;6.15;;;2.67;;
26620;SDS011;14253;44.840;10.444;2023-06-10T07:43:27;6.22;;;3.05;;
26620;SDS011;14253;44.840;10.444;2023-06-10T07:45:53;6.40;;;2.60;;
26620;SDS011;14253;44.840;10.444;2023-06-10T07:48:19;7.47;;;2.95;;
26620;SDS011;14253;44.840;10.444;2023-06-10T07:50:45;7.20;;;2.97;;
26620;SDS011;14253;44.840;10.444;2023-06-10T07:53:10;6.13;;;3.55;;
26620;SDS011;14253;44.840;10.444;2023-06-10T07:55:36;8.60;;;3.42;;
26620;SDS011;14253;44.840;10.444;2023-06-10T07:58:02;10.05;;;3.20;;
26620;SDS011;14253;44.840;10.444;2023-06-10T08:00:28;6.50;;;3.05;;
26620;SDS011;14253;44.840;10.444;2023-06-10T08:02:54;7.68;;;3.03;;
26620;SDS011;14253;44.840;10.444;2023-06-10T08:05:21;7.00;;;2.95;;
26620;SDS011;14253;44.840;10.444;2023-06-10T08:07:47;6.65;;;3.50;;
26620;SDS011;14253;44.840;10.444;2023-06-10T08:10:13;9.57;;;3.40;;
26620;SDS011;14253;44.840;10.444;2023-06-10T08:12:39;5.97;;;3.50;;
26620;SDS011;14253;44.840;10.444;2023-06-10T08:15:05;7.47;;;3.97;;
26620;SDS011;14253;44.840;10.444;2023-06-10T08:17:32;7.72;;;3.90;;
26620;SDS011;14253;44.840;10.444;2023-06-10T08:19:58;5.72;;;3.50;;
26620;SDS011;14253;44.840;10.444;2023-06-10T08:22:24;7.82;;;4.07;;
26620;SDS011;14253;44.840;10.444;2023-06-10T08:24:53;7.72;;;3.63;;
26620;SDS011;14253;44.840;10.444;2023-06-10T08:27:19;9.90;;;4.03;;
26620;SDS011;14253;44.840;10.444;2023-06-10T08:29:45;7.13;;;4.03;;
26620;SDS011;14253;44.840;10.444;2023-06-10T08:32:11;9.18;;;5.45;;
26620;SDS011;14253;44.840;10.444;2023-06-10T08:34:37;8.48;;;5.38;;
26620;SDS011;14253;44.840;10.444;2023-06-10T08:37:03;10.52;;;6.25;;
26620;SDS011;14253;44.840;10.444;2023-06-10T08:39:29;9.82;;;5.88;;
26620;SDS011;14253;44.840;10.444;2023-06-10T08:44:35;11.65;;;5.28;;
26620;SDS011;14253;44.840;10.444;2023-06-10T08:47:06;8.93;;;6.68;;
26620;SDS011;14253;44.840;10.444;2023-06-10T08:49:44;12.00;;;7.03;;
26620;SDS011;14253;44.840;10.444;2023-06-10T08:52:19;13.15;;;6.60;;
26620;SDS011;14253;44.840;10.444;2023-06-10T08:54:52;8.80;;;5.45;;
26620;SDS011;14253;44.840;10.444;2023-06-10T08:57:21;9.38;;;5.82;;
26620;SDS011;14253;44.840;10.444;2023-06-10T08:59:48;11.02;;;5.22;;
26620;SDS011;14253;44.840;10.444;2023-06-10T09:02:15;14.20;;;4.93;;
26620;SDS011;14253;44.840;10.444;2023-06-10T09:04:44;6.38;;;4.53;;
26620;SDS011;14253;44.840;10.444;2023-06-10T09:07:13;11.80;;;5.63;;
26620;SDS011;14253;44.840;10.444;2023-06-10T09:09:41;8.65;;;5.30;;
26620;SDS011;14253;44.840;10.444;2023-06-10T09:12:08;7.82;;;4.47;;
26620;SDS011;14253;44.840;10.444;2023-06-10T09:14:35;5.93;;;3.47;;
26620;SDS011;14253;44.840;10.444;2023-06-10T09:17:02;2.83;;;2.03;;
26620;SDS011;14253;44.840;10.444;2023-06-10T09:19:28;5.85;;;2.05;;
26620;SDS011;14253;44.840;10.444;2023-06-10T09:21:55;7.03;;;2.58;;
26620;SDS011;14253;44.840;10.444;2023-06-10T09:24:24;4.68;;;2.83;;
26620;SDS011;14253;44.840;10.444;2023-06-10T09:26:50;5.57;;;2.75;;
26620;SDS011;14253;44.840;10.444;2023-06-10T09:29:28;5.85;;;3.00;;
26620;SDS011;14253;44.840;10.444;2023-06-10T09:31:54;5.68;;;2.83;;
26620;SDS011;14253;44.840;10.444;2023-06-10T09:34:24;9.40;;;2.80;;
26620;SDS011;14253;44.840;10.444;2023-06-10T09:36:51;6.22;;;2.95;;
26620;SDS011;14253;44.840;10.444;2023-06-10T09:39:17;8.90;;;3.83;;
26620;SDS011;14253;44.840;10.444;2023-06-10T09:41:44;7.10;;;3.05;;
26620;SDS011;14253;44.840;10.444;2023-06-10T09:44:11;4.72;;;2.47;;
26620;SDS011;14253;44.840;10.444;2023-06-10T09:46:42;7.32;;;3.17;;
26620;SDS011;14253;44.840;10.444;2023-06-10T09:49:11;6.82;;;2.97;;
26620;SDS011;14253;44.840;10.444;2023-06-10T09:51:37;5.40;;;2.80;;
26620;SDS011;14253;44.840;10.444;2023-06-10T09:54:14;6.45;;;3.10;;
26620;SDS011;14253;44.840;10.444;2023-06-10T09:56:40;3.90;;;2.65;;
26620;SDS011;14253;44.840;10.444;2023-06-10T09:59:07;4.75;;;2.70;;
26620;SDS011;14253;44.840;10.444;2023-06-10T10:01:34;6.75;;;2.85;;
26620;SDS011;14253;44.840;10.444;2023-06-10T10:04:00;6.80;;;3.35;;
26620;SDS011;14253;44.840;10.444;2023-06-10T10:06:26;4.88;;;2.13;;
26620;SDS011;14253;44.840;10.444;2023-06-10T10:08:54;5.28;;;2.55;;
26620;SDS011;14253;44.840;10.444;2023-06-10T10:11:21;7.95;;;2.33;;
26620;SDS011;14253;44.840;10.444;2023-06-10T10:13:48;7.47;;;2.38;;
26620;SDS011;14253;44.840;10.444;2023-06-10T10:16:19;5.97;;;3.20;;
26620;SDS011;14253;44.840;10.444;2023-06-10T10:18:54;8.73;;;3.83;;
26620;SDS011;14253;44.840;10.444;2023-06-10T10:21:22;6.13;;;3.33;;
26620;SDS011;14253;44.840;10.444;2023-06-10T10:24:00;6.47;;;3.35;;
26620;SDS011;14253;44.840;10.444;2023-06-10T10:26:47;7.28;;;3.75;;
26620;SDS011;14253;44.840;10.444;2023-06-10T10:29:29;5.25;;;3.22;;
26620;SDS011;14253;44.840;10.444;2023-06-10T10:32:01;8.95;;;3.70;;
26620;SDS011;14253;44.840;10.444;2023-06-10T10:34:40;7.28;;;3.47;;
26620;SDS011;14253;44.840;10.444;2023-06-10T10:37:14;8.07;;;3.60;;
26620;SDS011;14253;44.840;10.444;2023-06-10T10:39:40;6.18;;;3.20;;
26620;SDS011;14253;44.840;10.444;2023-06-10T10:42:06;8.20;;;3.78;;
26620;SDS011;14253;44.840;10.444;2023-06-10T10:44:36;6.57;;;3.10;;
26620;SDS011;14253;44.840;10.444;2023-06-10T10:47:04;5.15;;;2.90;;
26620;SDS011;14253;44.840;10.444;2023-06-10T10:49:34;6.80;;;3.17;;
26620;SDS011;14253;44.840;10.444;2023-06-10T10:52:02;5.78;;;3.22;;
26620;SDS011;14253;44.840;10.444;2023-06-10T10:54:34;7.88;;;3.38;;
26620;SDS011;14253;44.840;10.444;2023-06-10T10:59:57;5.15;;;2.53;;
26620;SDS011;14253;44.840;10.444;2023-06-10T11:05:15;7.45;;;3.53;;
26620;SDS011;14253;44.840;10.444;2023-06-10T11:07:51;4.30;;;2.78;;
26620;SDS011;14253;44.840;10.444;2023-06-10T11:10:28;5.03;;;2.53;;
26620;SDS011;14253;44.840;10.444;2023-06-10T11:12:57;5.03;;;2.80;;
26620;SDS011;14253;44.840;10.444;2023-06-10T11:15:24;6.82;;;3.08;;
26620;SDS011;14253;44.840;10.444;2023-06-10T11:31:19;6.70;;;2.95;;
26620;SDS011;14253;44.840;10.444;2023-06-10T11:33:47;6.43;;;3.15;;
26620;SDS011;14253;44.840;10.444;2023-06-10T11:36:14;5.40;;;2.95;;
26620;SDS011;14253;44.840;10.444;2023-06-10T11:38:43;5.25;;;3.00;;
26620;SDS011;14253;44.840;10.444;2023-06-10T11:41:10;9.20;;;2.83;;
26620;SDS011;14253;44.840;10.444;2023-06-10T11:43:38;5.32;;;2.78;;
26620;SDS011;14253;44.840;10.444;2023-06-10T11:46:13;4.35;;;2.67;;
26620;SDS011;14253;44.840;10.444;2023-06-10T11:48:49;4.88;;;2.88;;
26620;SDS011;14253;44.840;10.444;2023-06-10T11:51:15;6.05;;;3.20;;
26620;SDS011;14253;44.840;10.444;2023-06-10T11:53:43;7.20;;;3.80;;
26620;SDS011;14253;44.840;10.444;2023-06-10T11:56:10;7.00;;;3.78;;
26620;SDS011;14253;44.840;10.444;2023-06-10T11:58:36;6.43;;;3.33;;
26620;SDS011;14253;44.840;10.444;2023-06-10T12:01:02;6.30;;;3.20;;
26620;SDS011;14253;44.840;10.444;2023-06-10T12:03:35;6.75;;;4.00;;
26620;SDS011;14253;44.840;10.444;2023-06-10T12:06:05;5.68;;;4.22;;
26620;SDS011;14253;44.840;10.444;2023-06-10T12:08:32;7.07;;;3.55;;
26620;SDS011;14253;44.840;10.444;2023-06-10T12:10:59;4.97;;;3.90;;
26620;SDS011;14253;44.840;10.444;2023-06-10T12:13:28;7.93;;;4.65;;
26620;SDS011;14253;44.840;10.444;2023-06-10T12:15:54;6.90;;;5.03;;
26620;SDS011;14253;44.840;10.444;2023-06-10T12:18:20;9.38;;;5.63;;
26620;SDS011;14253;44.840;10.444;2023-06-10T12:20:48;7.30;;;5.53;;
26620;SDS011;14253;44.840;10.444;2023-06-10T12:23:15;6.22;;;4.45;;
26620;SDS011;14253;44.840;10.444;2023-06-10T12:25:54;8.35;;;5.88;;
26620;SDS011;14253;44.840;10.444;2023-06-10T12:28:21;11.10;;;6.88;;
26620;SDS011;14253;44.840;10.444;2023-06-10T12:30:48;10.60;;;6.75;;
26620;SDS011;14253;44.840;10.444;2023-06-10T12:33:15;8.90;;;6.70;;
26620;SDS011;14253;44.840;10.444;2023-06-10T12:35:51;8.18;;;6.45;;
26620;SDS011;14253;44.840;10.444;2023-06-10T12:38:21;9.50;;;6.60;;
26620;SDS011;14253;44.840;10.444;2023-06-10T12:40:49;7.97;;;6.10;;
26620;SDS011;14253;44.840;10.444;2023-06-10T12:43:19;9.73;;;5.45;;
26620;SDS011;14253;44.840;10.444;2023-06-10T12:45:46;11.85;;;7.57;;
26620;SDS011;14253;44.840;10.444;2023-06-10T12:48:16;9.20;;;5.60;;
26620;SDS011;14253;44.840;10.444;2023-06-10T12:50:43;8.57;;;5.68;;
26620;SDS011;14253;44.840;10.444;2023-06-10T12:53:10;6.65;;;5.00;;
26620;SDS011;14253;44.840;10.444;2023-06-10T12:55:37;8.93;;;5.80;;
26620;SDS011;14253;44.840;10.444;2023-06-10T12:58:03;7.47;;;5.18;;
26620;SDS011;14253;44.840;10.444;2023-06-10T13:00:29;9.32;;;5.80;;
26620;SDS011;14253;44.840;10.444;2023-06-10T13:02:56;13.10;;;6.63;;
26620;SDS011;14253;44.840;10.444;2023-06-10T13:05:26;11.75;;;6.43;;
26620;SDS011;14253;44.840;10.444;2023-06-10T13:07:52;12.93;;;5.72;;
26620;SDS011;14253;44.840;10.444;2023-06-10T13:10:18;12.30;;;5.53;;
26620;SDS011;14253;44.840;10.444;2023-06-10T13:12:44;12.18;;;6.07;;
26620;SDS011;14253;44.840;10.444;2023-06-10T13:15:12;11.82;;;4.97;;
26620;SDS011;14253;44.840;10.444;2023-06-10T13:17:38;7.43;;;4.05;;
26620;SDS011;14253;44.840;10.444;2023-06-10T13:20:05;10.35;;;4.35;;
26620;SDS011;14253;44.840;10.444;2023-06-10T13:22:33;11.27;;;4.60;;
26620;SDS011;14253;44.840;10.444;2023-06-10T13:25:00;10.52;;;4.30;;
26620;SDS011;14253;44.840;10.444;2023-06-10T13:27:28;8.05;;;4.30;;
26620;SDS011;14253;44.840;10.444;2023-06-10T13:29:54;8.10;;;6.50;;
26620;SDS011;14253;44.840;10.444;2023-06-10T13:32:20;7.22;;;4.13;;
26620;SDS011;14253;44.840;10.444;2023-06-10T13:34:46;10.13;;;6.78;;
26620;SDS011;14253;44.840;10.444;2023-06-10T13:37:12;11.13;;;5.82;;
26620;SDS011;14253;44.840;10.444;2023-06-10T13:39:38;8.40;;;5.60;;
26620;SDS011;14253;44.840;10.444;2023-06-10T13:42:04;8.35;;;5.85;;
26620;SDS011;14253;44.840;10.444;2023-06-10T13:44:33;8.95;;;5.57;;
26620;SDS011;14253;44.840;10.444;2023-06-10T13:47:02;8.65;;;5.75;;
26620;SDS011;14253;44.840;10.444;2023-06-10T13:49:28;8.43;;;5.60;;
26620;SDS011;14253;44.840;10.444;2023-06-10T13:51:54;11.70;;;5.22;;
26620;SDS011;14253;44.840;10.444;2023-06-10T13:54:20;8.18;;;4.05;;
26620;SDS011;14253;44.840;10.444;2023-06-10T13:56:48;7.82;;;4.07;;
26620;SDS011;14253;44.840;10.444;2023-06-10T13:59:14;8.68;;;4.35;;
26620;SDS011;14253;44.840;10.444;2023-06-10T14:01:39;7.70;;;4.30;;
26620;SDS011;14253;44.840;10.444;2023-06-10T14:04:06;8.85;;;4.13;;
26620;SDS011;14253;44.840;10.444;2023-06-10T14:06:32;5.80;;;4.57;;
26620;SDS011;14253;44.840;10.444;2023-06-10T14:08:59;5.78;;;3.17;;
26620;SDS011;14253;44.840;10.444;2023-06-10T14:11:25;11.23;;;4.20;;
26620;SDS011;14253;44.840;10.444;2023-06-10T14:13:51;11.45;;;4.45;;
26620;SDS011;14253;44.840;10.444;2023-06-10T14:16:17;9.95;;;4.72;;
26620;SDS011;14253;44.840;10.444;2023-06-10T14:18:43;7.53;;;4.07;;
26620;SDS011;14253;44.840;10.444;2023-06-10T14:21:09;11.48;;;5.35;;
26620;SDS011;14253;44.840;10.444;2023-06-10T14:23:35;9.43;;;5.32;;
26620;SDS011;14253;44.840;10.444;2023-06-10T14:26:01;8.80;;;4.82;;
26620;SDS011;14253;44.840;10.444;2023-06-10T14:28:28;9.93;;;5.05;;
26620;SDS011;14253;44.840;10.444;2023-06-10T14:30:54;8.15;;;4.05;;
26620;SDS011;14253;44.840;10.444;2023-06-10T14:33:20;7.72;;;3.53;;
26620;SDS011;14253;44.840;10.444;2023-06-10T14:35:46;11.43;;;3.97;;
26620;SDS011;14253;44.840;10.444;2023-06-10T14:38:12;5.55;;;3.53;;
26620;SDS011;14253;44.840;10.444;2023-06-10T14:40:38;10.50;;;3.72;;
26620;SDS011;14253;44.840;10.444;2023-06-10T14:43:04;6.75;;;3.13;;
26620;SDS011;14253;44.840;10.444;2023-06-10T14:45:41;5.22;;;2.63;;
26620;SDS011;14253;44.840;10.444;2023-06-10T14:48:07;8.48;;;2.95;;
26620;SDS011;14253;44.840;10.444;2023-06-10T14:50:36;4.75;;;2.72;;
26620;SDS011;14253;44.840;10.444;2023-06-10T14:53:03;5.40;;;3.13;;
26620;SDS011;14253;44.840;10.444;2023-06-10T14:55:29;5.88;;;2.72;;
26620;SDS011;14253;44.840;10.444;2023-06-10T14:57:55;8.68;;;3.53;;
26620;SDS011;14253;44.840;10.444;2023-06-10T15:00:23;9.93;;;4.05;;